createdAt,value
2023-02-18T00:01:12.438Z,76.42
2023-02-18T00:03:39.397Z,76.16
2023-02-18T00:06:19.886Z,76.08
2023-02-18T00:08:46.840Z,75.09
2023-02-18T00:11:13.857Z,74.93
2023-02-18T00:13:40.584Z,74.93
2023-02-18T00:16:12.075Z,74.54
2023-02-18T00:18:39.228Z,75.29
2023-02-18T00:21:07.004Z,74.95
2023-02-18T00:23:33.826Z,75.65
2023-02-18T00:26:09.385Z,74.64
2023-02-18T00:28:36.323Z,73.28
2023-02-18T00:31:07.732Z,73.05
2023-02-18T00:33:34.517Z,72.86
2023-02-18T00:36:05.184Z,72.63
2023-02-18T00:38:31.948Z,74.01
2023-02-18T00:40:59.034Z,72.55
2023-02-18T00:43:25.848Z,72.23
2023-02-18T00:45:52.578Z,72.13
2023-02-18T00:48:19.255Z,72.46
2023-02-18T00:50:45.970Z,71.85
2023-02-18T00:53:12.899Z,71.66
2023-02-18T00:55:40.783Z,71.13
2023-02-18T00:58:07.444Z,71.24
2023-02-18T01:00:34.238Z,71.14
2023-02-18T01:03:01.037Z,71.97
2023-02-18T01:05:27.840Z,72.46
2023-02-18T01:07:54.641Z,70.85
2023-02-18T01:10:21.344Z,72.04
2023-02-18T01:12:48.047Z,71.39
2023-02-18T01:15:15.298Z,71.91
2023-02-18T01:17:42.056Z,71.58
2023-02-18T01:20:09.665Z,71.20
2023-02-18T01:22:36.372Z,70.32
2023-02-18T01:25:03.232Z,69.41
2023-02-18T01:27:29.868Z,69.60
2023-02-18T01:29:56.584Z,70.22
2023-02-18T01:32:23.452Z,70.77
2023-02-18T01:34:50.214Z,70.92
2023-02-18T01:37:16.856Z,71.50
2023-02-18T01:39:43.654Z,71.39
2023-02-18T01:42:36.515Z,73.07
2023-02-18T01:45:30.919Z,73.28
2023-02-18T01:47:57.643Z,72.70
2023-02-18T01:50:24.372Z,72.75
2023-02-18T01:52:51.049Z,72.01
2023-02-18T01:55:17.750Z,72.41
2023-02-18T01:57:44.475Z,72.46
2023-02-18T02:00:14.013Z,72.87
2023-02-18T02:02:42.412Z,75.15
2023-02-18T02:05:09.091Z,74.71
2023-02-18T02:07:35.896Z,74.52
2023-02-18T02:10:02.516Z,74.19
2023-02-18T02:13:10.817Z,73.12
2023-02-18T02:15:46.632Z,72.69
2023-02-18T02:18:24.336Z,72.93
2023-02-18T02:20:54.126Z,73.77
2023-02-18T02:23:47.344Z,73.60
2023-02-18T02:26:32.571Z,71.89
2023-02-18T02:29:12.065Z,72.08
2023-02-18T02:31:53.842Z,71.97
2023-02-18T02:34:38.423Z,72.09
2023-02-18T02:37:28.478Z,72.60
2023-02-18T02:40:12.396Z,72.59
2023-02-18T02:43:12.498Z,72.25
2023-02-18T02:45:39.326Z,71.83
2023-02-18T02:48:17.891Z,71.69
2023-02-18T02:50:55.232Z,71.98
2023-02-18T02:53:25.185Z,71.43
2023-02-18T02:55:51.998Z,70.02
2023-02-18T02:58:19.171Z,70.06
2023-02-18T03:00:58.872Z,70.02
2023-02-18T03:03:37.551Z,70.21
2023-02-18T03:06:21.366Z,70.74
2023-02-18T03:09:36.697Z,71.04
2023-02-18T03:12:07.626Z,70.50
2023-02-18T03:14:58.696Z,69.38
2023-02-18T03:17:28.018Z,70.13
2023-02-18T03:20:28.557Z,68.82
2023-02-18T03:22:55.850Z,68.76
2023-02-18T03:25:22.569Z,68.87
2023-02-18T03:28:00.853Z,68.64
2023-02-18T03:30:46.784Z,69.56
2023-02-18T03:33:16.092Z,70.10
2023-02-18T03:35:42.792Z,68.80
2023-02-18T03:38:24.896Z,69.31
2023-02-18T03:40:51.471Z,68.87
2023-02-18T03:43:18.571Z,68.77
2023-02-18T03:45:45.416Z,70.33
2023-02-18T03:48:12.084Z,70.68
2023-02-18T03:50:38.740Z,71.17
2023-02-18T03:53:05.510Z,74.07
2023-02-18T03:55:32.259Z,74.30
2023-02-18T03:57:58.955Z,74.27
2023-02-18T04:00:25.596Z,74.13
2023-02-18T04:02:52.305Z,72.33
2023-02-18T04:05:18.959Z,72.31
2023-02-18T04:07:45.645Z,72.40
2023-02-18T04:10:12.448Z,71.72
2023-02-18T04:12:39.210Z,71.67
2023-02-18T04:15:06.126Z,71.25
2023-02-18T04:17:33.598Z,70.75
2023-02-18T04:20:00.381Z,71.14
2023-02-18T04:22:26.925Z,71.25
2023-02-18T04:24:53.775Z,70.59
2023-02-18T04:27:20.503Z,70.54
2023-02-18T04:29:47.546Z,72.17
2023-02-18T04:32:14.166Z,70.74
2023-02-18T04:34:40.849Z,70.63
2023-02-18T04:37:07.468Z,70.49
2023-02-18T04:39:34.209Z,70.88
2023-02-18T04:42:01.410Z,71.37
2023-02-18T04:44:28.160Z,71.22
2023-02-18T04:46:54.838Z,71.95
2023-02-18T04:49:21.453Z,71.29
2023-02-18T04:51:48.197Z,70.21
2023-02-18T04:54:14.840Z,70.13
2023-02-18T04:56:41.555Z,70.23
2023-02-18T04:59:08.195Z,68.89
2023-02-18T05:01:35.028Z,67.64
2023-02-18T05:04:01.778Z,67.72
2023-02-18T05:06:28.439Z,66.82
2023-02-18T05:08:55.098Z,66.74
2023-02-18T05:11:21.787Z,67.12
2023-02-18T05:13:48.512Z,67.47
2023-02-18T05:16:15.198Z,68.16
2023-02-18T05:18:42.000Z,68.23
2023-02-18T05:21:08.656Z,67.43
2023-02-18T05:23:35.295Z,67.23
2023-02-18T05:26:01.952Z,67.52
2023-02-18T05:28:28.557Z,68.50
2023-02-18T05:30:55.443Z,68.06
2023-02-18T05:33:22.134Z,70.25
2023-02-18T05:35:49.182Z,69.12
2023-02-18T05:38:15.993Z,69.18
2023-02-18T05:40:42.641Z,70.06
2023-02-18T05:43:09.354Z,69.15
2023-02-18T05:45:36.264Z,69.58
2023-02-18T05:48:03.111Z,70.71
2023-02-18T05:50:29.830Z,70.59
2023-02-18T05:52:56.532Z,69.37
2023-02-18T05:55:24.435Z,69.52
2023-02-18T05:57:51.233Z,70.37
2023-02-18T06:00:18.305Z,70.97
2023-02-18T06:02:45.115Z,70.72
2023-02-18T06:05:11.860Z,68.88
2023-02-18T06:07:38.516Z,68.77
2023-02-18T06:10:06.496Z,69.60
2023-02-18T06:12:33.239Z,68.50
2023-02-18T06:14:59.952Z,68.33
2023-02-18T06:17:26.687Z,68.10
2023-02-18T06:22:20.069Z,68.24
2023-02-18T06:24:47.018Z,68.01
2023-02-18T06:27:13.730Z,68.53
2023-02-18T06:29:40.326Z,68.69
2023-02-18T06:32:07.048Z,69.55
2023-02-18T06:34:33.759Z,69.83
2023-02-18T06:37:01.380Z,69.75
2023-02-18T06:39:28.265Z,68.17
2023-02-18T06:41:54.962Z,67.51
2023-02-18T06:44:21.592Z,65.83
2023-02-18T06:46:48.310Z,65.05
2023-02-18T06:49:14.989Z,64.03
2023-02-18T06:51:41.674Z,64.31
2023-02-18T06:54:08.293Z,64.28
2023-02-18T06:56:35.066Z,63.36
2023-02-18T06:59:01.820Z,61.50
2023-02-18T07:01:28.487Z,60.75
2023-02-18T07:03:55.332Z,56.13
2023-02-18T07:06:21.927Z,60.39
2023-02-18T07:08:48.621Z,60.65
2023-02-18T07:11:15.367Z,55.41
2023-02-18T07:13:42.117Z,51.99
2023-02-18T07:16:09.087Z,50.99
2023-02-18T07:18:36.044Z,47.87
2023-02-18T07:21:02.791Z,48.76
2023-02-18T07:23:29.442Z,49.54
2023-02-18T07:26:10.221Z,51.34
2023-02-18T07:28:37.070Z,52.26
2023-02-18T07:31:05.768Z,52.08
2023-02-18T07:33:32.572Z,49.51
2023-02-18T07:35:59.914Z,48.45
2023-02-18T07:38:26.739Z,48.37
2023-02-18T07:40:53.746Z,45.78
2023-02-18T07:43:20.507Z,44.37
2023-02-18T07:45:47.335Z,44.23
2023-02-18T07:48:13.973Z,43.48
2023-02-18T07:50:42.488Z,43.68
2023-02-18T07:53:10.185Z,42.99
2023-02-18T07:55:52.164Z,41.92
2023-02-18T07:58:23.553Z,42.94
2023-02-18T08:00:50.399Z,42.19
2023-02-18T08:03:17.769Z,41.44
2023-02-18T08:05:44.624Z,42.56
2023-02-18T08:08:15.156Z,40.13
2023-02-18T08:10:42.335Z,42.19
2023-02-18T08:13:09.363Z,40.39
2023-02-18T08:15:36.162Z,42.13
2023-02-18T08:18:02.956Z,41.39
2023-02-18T08:20:30.708Z,42.05
2023-02-18T08:22:57.584Z,40.27
2023-02-18T08:25:29.788Z,40.04
2023-02-18T08:27:56.747Z,39.47
2023-02-18T08:30:23.522Z,38.07
2023-02-18T08:32:50.220Z,38.20
2023-02-18T08:35:17.085Z,38.64
2023-02-18T08:37:52.685Z,37.84
2023-02-18T08:40:20.955Z,37.37
2023-02-18T08:42:47.765Z,38.29
2023-02-18T08:45:14.442Z,36.93
2023-02-18T08:48:17.372Z,37.62
2023-02-18T08:50:28.327Z,36.24
2023-02-18T08:52:55.076Z,36.21
2023-02-18T08:55:21.799Z,36.20
2023-02-18T08:57:48.895Z,36.11
2023-02-18T09:00:16.855Z,37.75
2023-02-18T09:02:43.668Z,38.10
2023-02-18T09:05:10.482Z,37.25
2023-02-18T09:07:37.525Z,39.44
2023-02-18T09:10:04.800Z,40.39
2023-02-18T09:12:31.517Z,41.50
2023-02-18T09:14:58.220Z,41.56
2023-02-18T09:17:24.964Z,42.83
2023-02-18T09:19:51.579Z,42.13
2023-02-18T09:22:18.593Z,41.64
2023-02-18T09:24:45.338Z,43.92
2023-02-18T09:27:12.141Z,43.04
2023-02-18T09:29:39.461Z,42.25
2023-02-18T09:32:06.377Z,41.28
2023-02-18T09:34:34.207Z,41.28
2023-02-18T09:37:00.930Z,41.08
2023-02-18T09:39:27.573Z,41.22
2023-02-18T09:41:58.682Z,40.00
2023-02-18T09:44:26.202Z,40.50
2023-02-18T09:47:02.601Z,41.36
2023-02-18T09:49:49.702Z,40.29
2023-02-18T09:52:20.473Z,42.22
2023-02-18T09:54:48.237Z,41.11
2023-02-18T09:57:32.929Z,40.39
2023-02-18T10:00:01.454Z,42.31
2023-02-18T10:02:28.347Z,41.56
2023-02-18T10:04:55.052Z,41.66
2023-02-18T10:07:32.936Z,40.74
2023-02-18T10:10:03.092Z,42.49
2023-02-18T10:12:29.785Z,42.50
2023-02-18T10:14:59.078Z,41.58
2023-02-18T10:17:27.606Z,43.06
2023-02-18T10:19:54.794Z,40.84
2023-02-18T10:22:21.835Z,40.00
2023-02-18T10:24:53.330Z,40.24
2023-02-18T10:27:36.274Z,39.23
2023-02-18T10:30:10.349Z,41.38
2023-02-18T10:32:38.081Z,40.34
2023-02-18T10:35:24.987Z,40.13
2023-02-18T10:38:23.598Z,39.24
2023-02-18T10:40:57.594Z,40.58
2023-02-18T10:43:47.304Z,41.29
2023-02-18T10:46:26.844Z,40.48
2023-02-18T10:49:19.642Z,38.35
2023-02-18T10:51:48.869Z,38.01
2023-02-18T10:54:16.007Z,37.65
2023-02-18T10:56:52.322Z,37.77
2023-02-18T10:59:23.165Z,37.83
2023-02-18T11:02:02.949Z,37.21
2023-02-18T11:04:40.668Z,37.41
2023-02-18T11:07:21.002Z,37.73
2023-02-18T11:09:53.415Z,36.89
2023-02-18T11:12:19.925Z,37.09
2023-02-18T11:14:48.713Z,35.29
2023-02-18T11:17:21.264Z,34.41
2023-02-18T11:19:53.320Z,33.18
2023-02-18T11:22:25.420Z,33.68
2023-02-18T11:24:59.326Z,33.21
2023-02-18T11:27:27.812Z,32.90
2023-02-18T11:29:57.597Z,35.94
2023-02-18T11:32:27.417Z,35.21
2023-02-18T11:34:54.127Z,33.89
2023-02-18T11:37:21.171Z,33.47
2023-02-18T11:39:49.986Z,34.14
2023-02-18T11:42:18.505Z,33.43
2023-02-18T11:44:58.879Z,34.89
2023-02-18T11:47:33.666Z,32.96
2023-02-18T11:50:14.359Z,33.51
2023-02-18T11:52:45.994Z,35.56
2023-02-18T11:55:24.861Z,34.75
2023-02-18T11:57:56.453Z,33.90
2023-02-18T12:00:41.404Z,35.41
2023-02-18T12:03:34.962Z,36.76
2023-02-18T12:06:04.031Z,33.86
2023-02-18T12:08:32.744Z,35.90
2023-02-18T12:11:13.043Z,35.04
2023-02-18T12:13:50.257Z,36.31
2023-02-18T12:16:39.542Z,35.83
2023-02-18T12:19:54.488Z,36.08
2023-02-18T12:23:02.834Z,36.46
2023-02-18T12:25:55.991Z,37.13
2023-02-18T12:28:25.854Z,34.35
2023-02-18T12:31:08.625Z,35.34
2023-02-18T12:33:55.224Z,35.86
2023-02-18T12:36:33.816Z,35.29
2023-02-18T12:39:23.382Z,34.86
2023-02-18T12:42:01.975Z,36.00
2023-02-18T12:44:45.613Z,35.35
2023-02-18T12:47:31.669Z,37.50
2023-02-18T12:50:04.223Z,36.50
2023-02-18T12:52:36.767Z,36.99
2023-02-18T12:55:23.603Z,36.17
2023-02-18T12:58:08.150Z,35.43
2023-02-18T13:01:03.739Z,35.60
2023-02-18T13:03:39.700Z,37.02
2023-02-18T13:06:29.145Z,35.30
2023-02-18T13:09:03.029Z,36.90
2023-02-18T13:11:54.178Z,35.90
2023-02-18T13:14:25.738Z,36.29
2023-02-18T13:16:53.836Z,38.13
2023-02-18T13:19:48.484Z,37.94
2023-02-18T13:22:15.622Z,38.48
2023-02-18T13:24:44.911Z,38.32
2023-02-18T13:27:49.799Z,37.58
2023-02-18T13:30:33.404Z,38.17
2023-02-18T13:33:18.492Z,38.21
2023-02-18T13:36:00.417Z,39.16
2023-02-18T13:38:26.941Z,38.66
2023-02-18T13:40:53.514Z,37.17
2023-02-18T13:43:33.919Z,38.61
2023-02-18T13:46:18.291Z,37.36
2023-02-18T13:48:53.659Z,38.35
2023-02-18T13:51:31.790Z,38.61
2023-02-18T13:54:02.980Z,40.57
2023-02-18T13:56:31.315Z,39.52
2023-02-18T13:59:07.285Z,39.36
2023-02-18T14:01:41.721Z,39.42
2023-02-18T14:04:42.236Z,39.29
2023-02-18T14:07:33.093Z,39.52
2023-02-18T14:10:00.651Z,39.72
2023-02-18T14:12:54.075Z,39.94
2023-02-18T14:15:20.655Z,40.93
2023-02-18T14:18:10.089Z,39.41
2023-02-18T14:20:39.879Z,38.64
2023-02-18T14:23:18.857Z,39.00
2023-02-18T14:26:07.293Z,39.91
2023-02-18T14:28:35.160Z,40.44
2023-02-18T14:31:32.445Z,41.58
2023-02-18T14:34:05.016Z,41.28
2023-02-18T14:36:43.293Z,40.91
2023-02-18T14:39:18.891Z,41.79
2023-02-18T14:41:47.821Z,42.89
2023-02-18T14:44:34.669Z,42.77
2023-02-18T14:47:10.035Z,42.78
2023-02-18T14:49:44.478Z,42.90
2023-02-18T14:52:19.831Z,44.16
2023-02-18T14:54:46.511Z,44.40
2023-02-18T14:57:15.903Z,44.35
2023-02-18T14:59:42.878Z,44.87
2023-02-18T15:02:19.556Z,44.87
2023-02-18T15:04:47.534Z,45.55
2023-02-18T15:07:14.257Z,45.12
2023-02-18T15:09:48.710Z,45.59
2023-02-18T15:12:20.304Z,45.32
2023-02-18T15:14:47.219Z,45.82
2023-02-18T15:17:15.860Z,47.02
2023-02-18T15:19:46.848Z,46.91
2023-02-18T15:22:18.621Z,46.50
2023-02-18T15:24:45.359Z,46.01
2023-02-18T15:27:20.562Z,46.93
2023-02-18T15:29:56.504Z,47.74
2023-02-18T15:32:28.012Z,47.41
2023-02-18T15:35:02.183Z,47.12
2023-02-18T15:37:30.195Z,48.02
2023-02-18T15:39:57.017Z,47.23
2023-02-18T15:42:34.475Z,46.49
2023-02-18T15:45:13.272Z,46.19
2023-02-18T15:47:44.261Z,46.50
2023-02-18T15:50:22.040Z,47.06
2023-02-18T15:52:49.049Z,46.37
2023-02-18T15:55:31.819Z,46.34
2023-02-18T15:58:24.237Z,46.06
2023-02-18T16:01:02.304Z,46.64
2023-02-18T16:03:32.634Z,45.87
2023-02-18T16:06:11.954Z,46.15
2023-02-18T16:08:41.128Z,46.36
2023-02-18T16:11:10.470Z,46.02
2023-02-18T16:13:37.613Z,46.14
2023-02-18T16:16:04.752Z,46.34
2023-02-18T16:18:39.085Z,46.62
2023-02-18T16:21:35.237Z,46.55
2023-02-18T16:24:02.396Z,47.23
2023-02-18T16:26:38.244Z,48.02
2023-02-18T16:29:13.903Z,48.10
2023-02-18T16:31:41.187Z,49.49
2023-02-18T16:34:07.906Z,48.74
2023-02-18T16:36:34.661Z,49.08
2023-02-18T16:39:02.295Z,49.42
2023-02-18T16:41:29.232Z,50.05
2023-02-18T16:43:55.914Z,50.06
2023-02-18T16:46:22.854Z,50.12
2023-02-18T16:48:50.571Z,48.98
2023-02-18T16:51:22.773Z,48.56
2023-02-18T16:53:49.568Z,49.20
2023-02-18T16:56:24.977Z,48.20
2023-02-18T16:58:52.083Z,47.47
2023-02-18T17:01:29.703Z,48.08
2023-02-18T17:03:57.608Z,46.82
2023-02-18T17:06:24.614Z,47.87
2023-02-18T17:08:51.360Z,47.84
2023-02-18T17:11:33.373Z,47.85
2023-02-18T17:14:00.227Z,48.50
2023-02-18T17:16:27.471Z,48.83
2023-02-18T17:18:54.297Z,48.03
2023-02-18T17:21:23.710Z,49.14
2023-02-18T17:23:50.480Z,48.31
2023-02-18T17:26:25.499Z,48.82
2023-02-18T17:28:53.324Z,48.65
2023-02-18T17:31:35.437Z,49.29
2023-02-18T17:34:05.199Z,47.12
2023-02-18T17:36:31.963Z,46.71
2023-02-18T17:39:00.068Z,46.46
2023-02-18T17:41:28.329Z,46.30
2023-02-18T17:43:55.001Z,47.25
2023-02-18T17:46:22.184Z,45.72
2023-02-18T17:48:48.866Z,45.95
2023-02-18T17:51:26.672Z,46.00
2023-02-18T17:53:53.452Z,45.65
2023-02-18T17:56:20.208Z,45.64
2023-02-18T17:58:47.780Z,46.64
2023-02-18T18:01:14.617Z,46.88
2023-02-18T18:03:41.339Z,46.53
2023-02-18T18:06:18.108Z,47.83
2023-02-18T18:08:47.341Z,48.28
2023-02-18T18:11:21.660Z,49.08
2023-02-18T18:13:48.473Z,49.33
2023-02-18T18:16:16.114Z,48.50
2023-02-18T18:18:43.237Z,48.80
2023-02-18T18:21:23.882Z,47.74
2023-02-18T18:23:50.705Z,48.11
2023-02-18T18:26:17.405Z,47.37
2023-02-18T18:28:44.143Z,47.76
2023-02-18T18:31:15.811Z,48.00
2023-02-18T18:33:43.163Z,48.13
2023-02-18T18:36:10.169Z,47.39
2023-02-18T18:38:37.103Z,46.57
2023-02-18T18:41:03.904Z,47.36
2023-02-18T18:43:33.191Z,48.77
2023-02-18T18:46:00.098Z,49.27
2023-02-18T18:48:26.909Z,49.02
2023-02-18T18:50:53.601Z,48.99
2023-02-18T18:53:25.197Z,48.72
2023-02-18T18:55:53.402Z,49.54
2023-02-18T18:58:24.688Z,49.43
2023-02-18T19:00:53.766Z,49.14
2023-02-18T19:03:21.209Z,50.77
2023-02-18T19:05:48.113Z,51.16
2023-02-18T19:08:16.848Z,51.05
2023-02-18T19:10:45.106Z,51.28
2023-02-18T19:13:13.740Z,51.47
2023-02-18T19:15:40.487Z,51.73
2023-02-18T19:18:07.398Z,52.19
2023-02-18T19:20:38.560Z,51.86
2023-02-18T19:23:05.214Z,51.91
2023-02-18T19:25:31.886Z,52.18
2023-02-18T19:27:58.695Z,52.20
2023-02-18T19:30:27.109Z,52.97
2023-02-18T19:32:55.333Z,52.01
2023-02-18T19:35:22.252Z,52.33
2023-02-18T19:37:49.093Z,53.26
2023-02-18T19:40:23.153Z,54.09
2023-02-18T19:42:49.922Z,53.26
2023-02-18T19:45:20.678Z,54.36
2023-02-18T19:47:47.647Z,54.15
2023-02-18T19:50:15.557Z,53.83
2023-02-18T19:52:42.177Z,56.22
2023-02-18T19:55:08.909Z,57.13
2023-02-18T19:57:35.707Z,57.57
2023-02-18T20:00:04.493Z,57.08
2023-02-18T20:02:32.253Z,58.08
2023-02-18T20:05:01.737Z,59.08
2023-02-18T20:07:28.456Z,59.03
2023-02-18T20:09:55.145Z,58.13
2023-02-18T20:12:21.853Z,58.48
2023-02-18T20:14:49.973Z,59.08
2023-02-18T20:17:16.781Z,58.94
2023-02-18T20:19:43.548Z,59.05
2023-02-18T20:22:13.085Z,59.52
2023-02-18T20:24:40.137Z,60.46
2023-02-18T20:27:07.175Z,61.30
2023-02-18T20:29:33.891Z,61.45
2023-02-18T20:32:01.212Z,62.73
2023-02-18T20:34:28.044Z,62.72
2023-02-18T20:36:54.714Z,63.55
2023-02-18T20:39:22.621Z,62.95
2023-02-18T20:41:50.124Z,61.61
2023-02-18T20:44:17.167Z,61.90
2023-02-18T20:46:44.204Z,61.37
2023-02-18T20:49:15.768Z,62.00
2023-02-18T20:51:42.797Z,62.53
2023-02-18T20:54:11.363Z,62.80
2023-02-18T20:56:38.257Z,63.14
2023-02-18T20:59:05.268Z,63.16
2023-02-18T21:01:32.123Z,67.06
2023-02-18T21:03:59.090Z,65.57
2023-02-18T21:06:25.941Z,64.50
2023-02-18T21:08:53.296Z,65.53
2023-02-18T21:11:22.291Z,64.92
2023-02-18T21:13:49.605Z,66.18
2023-02-18T21:16:17.028Z,65.11
2023-02-18T21:18:43.824Z,64.19
2023-02-18T21:21:11.122Z,64.22
2023-02-18T21:23:38.562Z,64.63
2023-02-18T21:26:32.684Z,64.65
2023-02-18T21:29:01.744Z,63.96
2023-02-18T21:31:30.590Z,65.67
2023-02-18T21:33:57.304Z,65.31
2023-02-18T21:36:24.155Z,65.94
2023-02-18T21:38:55.086Z,65.36
2023-02-18T21:41:22.093Z,64.62
2023-02-18T21:43:48.893Z,64.67
2023-02-18T21:46:17.505Z,64.45
2023-02-18T21:49:02.796Z,64.23
2023-02-18T21:51:48.609Z,63.68
2023-02-18T21:54:16.673Z,64.83
2023-02-18T21:56:43.431Z,64.29
2023-02-18T21:59:10.236Z,58.52
2023-02-18T22:01:36.949Z,54.28
2023-02-18T22:04:03.763Z,50.69
2023-02-18T22:06:30.488Z,49.55
2023-02-18T22:09:00.615Z,49.76
2023-02-18T22:11:28.120Z,49.32
2023-02-18T22:13:54.996Z,48.80
2023-02-18T22:16:21.816Z,49.00
2023-02-18T22:18:48.703Z,48.96
2023-02-18T22:21:15.489Z,48.77
2023-02-18T22:23:42.160Z,47.94
2023-02-18T22:26:09.252Z,48.18
2023-02-18T22:28:35.964Z,47.89
2023-02-18T22:31:09.622Z,48.19
2023-02-18T22:33:36.481Z,48.51
2023-02-18T22:36:04.999Z,49.07
2023-02-18T22:38:33.745Z,49.07
2023-02-18T22:41:06.950Z,49.95
2023-02-18T22:43:33.972Z,50.40
2023-02-18T22:46:09.065Z,50.73
2023-02-18T22:48:36.058Z,51.12
2023-02-18T22:51:08.000Z,51.45
2023-02-18T22:53:35.328Z,50.40
2023-02-18T22:56:10.804Z,50.47
2023-02-18T22:58:37.512Z,50.54
2023-02-18T23:01:05.085Z,50.74
2023-02-18T23:03:32.214Z,50.16
2023-02-18T23:06:06.685Z,51.65
2023-02-18T23:08:34.043Z,51.31
2023-02-18T23:11:05.461Z,51.56
2023-02-18T23:13:32.560Z,51.65
2023-02-18T23:16:00.629Z,53.43
2023-02-18T23:18:27.683Z,53.28
2023-02-18T23:21:18.310Z,50.79
2023-02-18T23:23:45.555Z,50.19
2023-02-18T23:26:12.222Z,50.43
2023-02-18T23:28:47.754Z,51.26
2023-02-18T23:31:15.885Z,51.43
2023-02-18T23:33:42.713Z,51.21
2023-02-18T23:36:15.124Z,51.62
2023-02-18T23:38:41.812Z,53.12
2023-02-18T23:41:08.870Z,54.82
2023-02-18T23:43:35.756Z,55.26
2023-02-18T23:46:02.504Z,55.56
2023-02-18T23:48:29.174Z,55.72
2023-02-18T23:51:02.339Z,55.60
2023-02-18T23:53:29.423Z,56.11
2023-02-18T23:56:20.929Z,56.05
2023-02-18T23:58:52.310Z,56.94
